This is the latest recevied weather packets stored in our database for station/object N0QV. If no packets are shown the sender has not sent any weather packets the latest 10 day(s).
| Time | Temp. | Humidity | Pressure | Rain* | Wind** | Luminosity | Snow |
|---|---|---|---|---|---|---|---|
| 1788361707 | 24.44° C | 77% | 1012.7 hPa | 0 mm | - | 287 W/m² | - |
| 1788361403 | 24.44° C | 74% | 1012.5 hPa | 0 mm | - | 313 W/m² | - |
| 1788361102 | 25° C | 74% | 1012.7 hPa | 0 mm | - | 371 W/m² | - |
| 1788360798 | 25° C | 74% | 1012.6 hPa | 0 mm | - | 402 W/m² | - |
| 1788360493 | 24.44° C | 74% | 1012.6 hPa | 0 mm | - | 413 W/m² | - |
| 1788360189 | 24.44° C | 76% | 1012.6 hPa | 0 mm | - | 356 W/m² | - |
| 1788359884 | 23.89° C | 77% | 1012.4 hPa | 0 mm | - | 339 W/m² | - |
| 1788359578 | 23.89° C | 78% | 1012.5 hPa | 0 mm | - | 324 W/m² | - |
| 1788359274 | 23.33° C | 78% | 1012.4 hPa | 0 mm | - | 298 W/m² | - |
| 1788358970 | 23.33° C | 78% | 1012.5 hPa | 0 mm | - | 290 W/m² | - |
| 1788358670 | 23.33° C | 79% | 1012.3 hPa | 0 mm | - | 52 W/m² | - |
| 1788358366 | 22.78° C | 79% | 1012.1 hPa | 0 mm | - | 257 W/m² | - |
| 1788358066 | 22.78° C | 79% | 1012 hPa | 0 mm | - | 279 W/m² | - |
| 1788357761 | 22.78° C | 79% | 1012.2 hPa | 0 mm | - | 278 W/m² | - |
| 1788357460 | 22.22° C | 80% | 1012.3 hPa | 0 mm | - | 275 W/m² | - |
| 1788357156 | 22.22° C | 81% | 1012.3 hPa | 0 mm | - | 97 W/m² | - |
| 1788356855 | 22.22° C | 81% | 1012.5 hPa | 0 mm | - | 85 W/m² | - |
| 1788356551 | 22.22° C | 81% | 1012.4 hPa | 0 mm | - | 77 W/m² | - |
| 1788356247 | 21.67° C | 82% | 1012.4 hPa | 0 mm | - | 74 W/m² | - |
| 1788355946 | 21.67° C | 84% | 1012.5 hPa | 0 mm | - | 70 W/m² | - |
| 1788355641 | 21.67° C | 84% | 1012.7 hPa | 0 mm | - | 65 W/m² | - |
| 1788355336 | 21.11° C | 85% | 1012.5 hPa | 0 mm | - | 60 W/m² | - |
| 1788355032 | 21.11° C | 85% | 1012.5 hPa | 0 mm | - | 58 W/m² | - |
| 1788354728 | 21.11° C | 86% | 1012.7 hPa | 0 mm | - | 46 W/m² | - |
| 1788354428 | 20.56° C | 87% | 1012.4 hPa | 0 mm | - | 49 W/m² | - |
* Rain latest hour (hover to see other rain measurements)
** Current wind speed in m/s (hover to see current wind gust speed)